Time;durP1;ratioP1;P1;durP2;ratioP2;P2;SDS_P1;SDS_P2;PMS_P1;PMS_P2;Temp;Humidity;BMP_temperature;BMP_pressure;BME280_temperature;BME280_humidity;BME280_pressure;Samples;Min_cycle;Max_cycle;Signal;HPM_P1;HPM_P2
2022/10/03 00:00:59;;;;;;;9.63;2.40;;;9.20;99.90;;;;;;4996976;28;20043;-71
2022/10/03 00:03:47;;;;;;;15.50;3.28;;;9.20;99.90;;;;;;4980500;28;20042;-73
2022/10/03 00:06:24;;;;;;;14.35;3.05;;;9.10;99.90;;;;;;4996915;28;20038;-72
2022/10/03 00:09:23;;;;;;;12.13;3.00;;;9.10;99.90;;;;;;4997090;28;20544;-72
2022/10/03 00:12:02;;;;;;;11.60;2.88;;;9.10;99.90;;;;;;4982775;28;20486;-72
2022/10/03 00:14:57;;;;;;;9.50;2.70;;;9.10;99.90;;;;;;5015915;28;20141;-73
2022/10/03 00:17:40;;;;;;;9.45;2.55;;;9.20;99.90;;;;;;5000693;28;20058;-72
2022/10/03 00:20:18;;;;;;;12.02;3.20;;;9.20;99.90;;;;;;4998989;28;20465;-72
2022/10/03 00:22:57;;;;;;;14.85;2.78;;;9.30;99.90;;;;;;5016371;28;20042;-74
2022/10/03 00:25:42;;;;;;;12.52;2.83;;;9.40;99.90;;;;;;5016348;28;20073;-72
2022/10/03 00:28:24;;;;;;;13.05;2.75;;;9.50;99.90;;;;;;5000064;28;20046;-72
2022/10/03 00:31:10;;;;;;;13.77;3.55;;;9.50;99.90;;;;;;4996515;28;20050;-72
2022/10/03 00:34:15;;;;;;;9.90;2.38;;;9.50;99.90;;;;;;4996008;28;20050;-71
2022/10/03 00:36:59;;;;;;;13.55;2.92;;;9.60;99.90;;;;;;4979208;28;20055;-72
2022/10/03 00:39:45;;;;;;;14.23;3.03;;;9.60;99.90;;;;;;4979124;28;20046;-72
2022/10/03 00:42:39;;;;;;;13.40;2.85;;;9.70;99.90;;;;;;4995897;28;20058;-72
2022/10/03 00:45:35;;;;;;;12.63;2.67;;;9.70;99.90;;;;;;4996237;28;20120;-72
2022/10/03 00:48:28;;;;;;;12.90;2.83;;;9.80;99.90;;;;;;4978993;28;20069;-72
2022/10/03 00:51:06;;;;;;;18.10;2.95;;;9.90;99.90;;;;;;4979050;28;20046;-71
2022/10/03 00:53:46;;;;;;;14.45;2.85;;;10.00;99.90;;;;;;4996080;28;20054;-72
2022/10/03 00:56:26;;;;;;;19.38;3.90;;;10.10;99.90;;;;;;4981365;28;20045;-73
2022/10/03 00:59:22;;;;;;;17.17;3.58;;;10.10;99.90;;;;;;5015969;28;20053;-72
2022/10/03 01:01:49;;;;;;;8.75;2.58;;;10.20;99.90;;;;;;5015535;28;20045;-73
2022/10/03 01:04:26;;;;;;;15.38;3.13;;;10.20;99.90;;;;;;5015681;28;20050;-72
2022/10/03 01:07:07;;;;;;;14.68;2.80;;;10.30;99.90;;;;;;5015537;28;20462;-72
2022/10/03 01:09:52;;;;;;;11.60;2.53;;;10.30;99.90;;;;;;5015373;28;20179;-72
2022/10/03 01:12:38;;;;;;;13.57;2.58;;;10.30;99.90;;;;;;4998840;28;20050;-73
2022/10/03 01:15:34;;;;;;;13.38;3.15;;;10.40;99.90;;;;;;4995801;28;20125;-73
2022/10/03 01:18:26;;;;;;;10.35;2.60;;;10.40;99.90;;;;;;4995563;28;20043;-73
2022/10/03 01:21:10;;;;;;;13.52;3.47;;;10.50;99.90;;;;;;4995532;28;20050;-73
2022/10/03 01:24:03;;;;;;;10.48;2.97;;;10.50;99.90;;;;;;4995613;28;20061;-73
2022/10/03 01:26:57;;;;;;;23.30;5.10;;;10.50;99.90;;;;;;4995094;28;20485;-72
2022/10/03 01:32:17;;;;;;;13.48;2.83;;;10.60;99.90;;;;;;4995515;28;20136;-72
2022/10/03 01:34:59;;;;;;;15.25;3.00;;;10.70;99.90;;;;;;4978402;28;20104;-72
2022/10/03 01:37:32;;;;;;;11.35;3.00;;;10.70;99.90;;;;;;4995323;28;20399;-72
2022/10/03 01:40:23;;;;;;;17.20;3.63;;;10.70;99.90;;;;;;4995569;28;20177;-72
2022/10/03 01:43:12;;;;;;;11.75;2.47;;;10.70;99.90;;;;;;4981767;28;20091;-73
2022/10/03 01:45:52;;;;;;;15.73;2.75;;;10.70;99.90;;;;;;4995254;28;20062;-72
2022/10/03 01:48:29;;;;;;;12.05;2.75;;;10.70;99.90;;;;;;4995633;28;20133;-72
2022/10/03 01:51:02;;;;;;;11.18;2.92;;;10.80;99.90;;;;;;4995799;28;20094;-73
2022/10/03 01:53:36;;;;;;;13.48;2.30;;;10.70;99.90;;;;;;4995310;28;20109;-73
2022/10/03 01:56:14;;;;;;;13.32;2.67;;;10.70;99.90;;;;;;4995469;28;20403;-73
2022/10/03 01:58:48;;;;;;;11.35;2.33;;;10.60;99.90;;;;;;4995421;28;20050;-72
2022/10/03 02:01:26;;;;;;;13.27;3.00;;;10.60;99.90;;;;;;4976088;28;20121;-73
2022/10/03 02:04:13;;;;;;;13.90;2.72;;;10.60;99.90;;;;;;4979687;28;20333;-73
2022/10/03 02:07:04;;;;;;;12.68;2.90;;;10.50;99.90;;;;;;4978307;28;20055;-72
2022/10/03 02:10:01;;;;;;;16.40;3.05;;;10.40;99.90;;;;;;4975198;28;20511;-72
2022/10/03 02:12:38;;;;;;;11.77;2.53;;;10.40;99.90;;;;;;4973454;28;20051;-72
2022/10/03 02:15:04;;;;;;;12.30;2.38;;;10.30;99.90;;;;;;4992227;28;20398;-72
2022/10/03 02:17:54;;;;;;;14.27;3.00;;;10.20;99.90;;;;;;4981872;28;20046;-73
2022/10/03 02:20:45;;;;;;;11.52;3.05;;;10.10;99.90;;;;;;4999009;28;20455;-72
2022/10/03 02:23:30;;;;;;;10.30;2.30;;;10.10;99.90;;;;;;4981819;28;20077;-72
2022/10/03 02:26:19;;;;;;;16.08;3.60;;;10.10;99.90;;;;;;4998768;28;20042;-73
2022/10/03 02:29:16;;;;;;;9.18;2.17;;;10.00;99.90;;;;;;4998765;28;20057;-71
2022/10/03 02:32:06;;;;;;;15.60;2.75;;;10.00;99.90;;;;;;4998692;28;20057;-73
2022/10/03 02:35:02;;;;;;;13.02;2.55;;;10.00;99.90;;;;;;4998592;28;20086;-72
2022/10/03 02:38:04;;;;;;;14.80;2.58;;;10.00;99.90;;;;;;4998382;28;20053;-73
2022/10/03 02:41:07;;;;;;;15.57;2.60;;;10.00;99.90;;;;;;4998819;28;20108;-72
2022/10/03 02:43:55;;;;;;;7.70;2.05;;;10.00;99.90;;;;;;4998143;28;20042;-72
2022/10/03 02:46:58;;;;;;;11.02;2.30;;;10.10;99.90;;;;;;4998499;28;20057;-73
2022/10/03 02:49:49;;;;;;;13.40;2.55;;;10.10;99.90;;;;;;4998287;28;20132;-72
2022/10/03 02:52:39;;;;;;;15.93;2.95;;;10.10;99.90;;;;;;4998564;28;20348;-71
2022/10/03 02:55:38;;;;;;;15.27;2.78;;;10.10;99.90;;;;;;4998154;28;20051;-72
2022/10/03 02:58:42;;;;;;;10.95;2.33;;;10.20;99.90;;;;;;4977071;28;20050;-73
2022/10/03 03:01:37;;;;;;;10.35;2.65;;;10.20;99.90;;;;;;4993226;28;20096;-72
2022/10/03 03:04:40;;;;;;;9.00;2.10;;;10.30;99.90;;;;;;5017445;28;20439;-72
2022/10/03 03:07:27;;;;;;;15.23;3.45;;;10.30;99.90;;;;;;5017858;28;20441;-73
2022/10/03 03:10:11;;;;;;;9.73;2.10;;;10.30;99.90;;;;;;5017790;28;20053;-72
2022/10/03 03:12:59;;;;;;;13.20;2.70;;;10.40;99.90;;;;;;5012840;28;20381;-72
2022/10/03 03:16:09;;;;;;;12.63;3.00;;;10.40;99.90;;;;;;4997989;28;20367;-72
2022/10/03 03:19:03;;;;;;;12.88;2.13;;;10.50;99.90;;;;;;4997886;28;20046;-72
2022/10/03 03:21:48;;;;;;;11.07;2.42;;;10.50;99.90;;;;;;4981416;28;20447;-72
2022/10/03 03:24:45;;;;;;;14.00;2.95;;;10.50;99.90;;;;;;4997858;28;20459;-72
2022/10/03 03:27:24;;;;;;;9.50;2.95;;;10.50;99.90;;;;;;4965732;28;20054;-72
2022/10/03 03:30:12;;;;;;;12.10;2.50;;;10.60;99.90;;;;;;4997804;28;20046;-72
2022/10/03 03:33:12;;;;;;;12.88;2.65;;;10.60;99.90;;;;;;4997613;28;20034;-73
2022/10/03 03:35:56;;;;;;;15.52;2.83;;;10.70;99.90;;;;;;4997367;28;20092;-72
2022/10/03 03:38:48;;;;;;;11.43;2.38;;;10.70;99.90;;;;;;4997995;28;20125;-72
2022/10/03 03:41:39;;;;;;;10.50;2.58;;;10.60;99.90;;;;;;4997331;28;20073;-73
2022/10/03 03:44:07;;;;;;;11.90;2.65;;;10.70;99.90;;;;;;4977930;28;20141;-72
2022/10/03 03:47:04;;;;;;;13.40;2.75;;;10.70;99.90;;;;;;4977029;28;20058;-72
2022/10/03 03:50:02;;;;;;;13.38;2.42;;;10.70;99.90;;;;;;4976663;28;20062;-74
2022/10/03 03:52:56;;;;;;;9.10;2.25;;;10.70;99.90;;;;;;4969879;28;20074;-72
2022/10/03 03:55:45;;;;;;;10.57;2.30;;;10.70;99.90;;;;;;4977843;28;20466;-73
2022/10/03 03:58:33;;;;;;;11.18;2.28;;;10.80;99.90;;;;;;4991987;28;20050;-73
2022/10/03 04:01:09;;;;;;;10.80;2.13;;;10.80;99.90;;;;;;4996892;28;20509;-72
2022/10/03 04:03:48;;;;;;;12.48;2.25;;;10.80;99.90;;;;;;4997278;28;20050;-72
2022/10/03 04:06:36;;;;;;;9.05;2.10;;;10.80;99.90;;;;;;4996693;28;20042;-72
2022/10/03 04:09:26;;;;;;;9.95;2.22;;;10.80;99.90;;;;;;4996958;28;20046;-73
2022/10/03 04:12:09;;;;;;;11.10;2.05;;;10.70;99.90;;;;;;4996704;28;20096;-73
2022/10/03 04:14:56;;;;;;;10.75;2.22;;;10.70;99.90;;;;;;4996459;28;20121;-72
2022/10/03 04:20:32;;;;;;;13.10;2.85;;;10.70;99.90;;;;;;4996675;28;20054;-72
2022/10/03 04:23:31;;;;;;;13.10;2.10;;;10.70;99.90;;;;;;4996556;28;20447;-71
2022/10/03 04:26:07;;;;;;;13.77;2.70;;;10.70;99.90;;;;;;4958087;28;20062;-72
2022/10/03 04:28:45;;;;;;;8.40;2.03;;;10.70;99.90;;;;;;4996331;28;20046;-72
2022/10/03 04:31:42;;;;;;;9.38;2.00;;;10.80;99.90;;;;;;4996042;28;20049;-71
2022/10/03 04:34:39;;;;;;;10.02;2.50;;;10.80;99.90;;;;;;4996487;28;20053;-72
2022/10/03 04:37:23;;;;;;;11.52;2.58;;;10.80;99.90;;;;;;4996812;28;20403;-72
2022/10/03 04:40:32;;;;;;;6.72;1.98;;;10.90;99.90;;;;;;4996652;28;20042;-72
2022/10/03 04:43:14;;;;;;;11.38;2.47;;;10.90;99.90;;;;;;4996329;28;20049;-72
2022/10/03 04:45:58;;;;;;;13.82;2.20;;;10.90;99.90;;;;;;4995890;28;20066;-72
2022/10/03 04:48:46;;;;;;;9.02;2.15;;;10.90;99.90;;;;;;4996108;28;20046;-72
2022/10/03 04:51:38;;;;;;;10.32;2.42;;;10.80;99.90;;;;;;4996332;28;20046;-71
2022/10/03 04:54:31;;;;;;;8.68;2.25;;;10.80;99.90;;;;;;4978960;28;20057;-72
2022/10/03 04:57:16;;;;;;;10.63;2.92;;;10.80;99.90;;;;;;4995645;28;20459;-72
2022/10/03 04:59:51;;;;;;;13.43;3.10;;;10.90;99.90;;;;;;4979136;28;20108;-70
2022/10/03 05:02:38;;;;;;;11.93;2.08;;;10.60;99.90;;;;;;4978770;28;20052;-72
2022/10/03 05:05:26;;;;;;;7.07;1.80;;;10.50;99.90;;;;;;4995695;28;20050;-72
2022/10/03 05:08:10;;;;;;;7.40;1.88;;;10.90;99.90;;;;;;4995900;28;20449;-72
2022/10/03 05:11:02;;;;;;;7.57;1.77;;;10.40;99.90;;;;;;4995951;28;20129;-72
2022/10/03 05:13:55;;;;;;;8.75;2.28;;;10.30;99.90;;;;;;4995763;28;20060;-72
2022/10/03 05:16:49;;;;;;;8.88;1.90;;;10.20;99.90;;;;;;4995490;28;20077;-71
2022/10/03 05:19:18;;;;;;;8.40;2.30;;;10.10;99.90;;;;;;4995768;28;20034;-72
2022/10/03 05:22:03;;;;;;;12.20;2.35;;;10.00;99.90;;;;;;4996011;28;20087;-72
2022/10/03 05:24:44;;;;;;;11.43;2.53;;;9.90;99.90;;;;;;4995897;28;20042;-72
2022/10/03 05:27:33;;;;;;;12.30;2.55;;;9.80;99.90;;;;;;4995269;28;20046;-72
2022/10/03 05:30:14;;;;;;;8.48;2.05;;;10.00;99.90;;;;;;4995551;28;20117;-71
2022/10/03 05:32:49;;;;;;;8.70;1.90;;;9.70;99.90;;;;;;4995881;28;20085;-72
2022/10/03 05:35:32;;;;;;;9.13;2.65;;;9.60;99.90;;;;;;4995324;28;20455;-72
2022/10/03 05:38:37;;;;;;;10.53;2.30;;;9.60;99.90;;;;;;4995644;28;20050;-72
2022/10/03 05:41:21;;;;;;;;;;;9.50;99.90;;;;;;4995967;28;20051;-71
2022/10/03 05:44:01;;;;;;;10.23;2.35;;;9.40;99.90;;;;;;4995327;28;19952;-72
2022/10/03 05:46:45;;;;;;;10.68;2.25;;;9.80;99.90;;;;;;4995123;28;20145;-71
2022/10/03 05:49:33;;;;;;;9.25;1.90;;;9.40;99.90;;;;;;4995232;28;20046;-72
2022/10/03 05:52:12;;;;;;;11.32;2.15;;;9.30;99.90;;;;;;4995330;28;20057;-72
2022/10/03 05:54:59;;;;;;;11.95;2.65;;;9.20;99.90;;;;;;4995138;28;20375;-72
2022/10/03 05:57:46;;;;;;;6.90;1.95;;;9.20;99.90;;;;;;4995606;28;20058;-72
2022/10/03 06:00:20;;;;;;;12.95;2.58;;;9.20;99.90;;;;;;4995007;28;20117;-71
2022/10/03 06:02:58;;;;;;;7.63;1.80;;;9.10;99.90;;;;;;4995154;28;20098;-72
2022/10/03 06:05:28;;;;;;;7.72;2.47;;;9.20;99.90;;;;;;4995140;28;20050;-72
2022/10/03 06:08:15;;;;;;;7.45;2.13;;;9.10;99.90;;;;;;4995229;28;20463;-72
2022/10/03 06:10:48;;;;;;;5.68;2.10;;;9.10;99.90;;;;;;4995211;28;20042;-71
2022/10/03 06:13:22;;;;;;;11.52;2.63;;;9.40;99.90;;;;;;4995302;28;20038;-71
2022/10/03 06:15:55;;;;;;;9.75;2.50;;;9.10;99.90;;;;;;4994799;28;20089;-72
2022/10/03 06:18:44;;;;;;;9.45;2.63;;;9.00;99.90;;;;;;4995468;28;20073;-71
2022/10/03 06:21:47;;;;;;;9.25;2.22;;;9.00;99.90;;;;;;4995249;28;20487;-72
2022/10/03 06:24:24;;;;;;;9.82;2.80;;;9.10;99.90;;;;;;4978373;28;20475;-72
2022/10/03 06:27:20;;;;;;;11.23;2.35;;;9.10;99.90;;;;;;4995267;28;20042;-71
2022/10/03 06:29:58;;;;;;;6.45;2.35;;;9.10;99.90;;;;;;4994932;28;20054;-72
2022/10/03 06:32:24;;;;;;;11.25;2.35;;;9.20;99.90;;;;;;4994494;28;20046;-72
2022/10/03 06:35:10;;;;;;;9.35;2.15;;;9.10;99.90;;;;;;4995117;28;20088;-73
2022/10/03 06:37:54;;;;;;;11.77;2.38;;;9.20;99.90;;;;;;4995033;28;20084;-71
2022/10/03 06:40:58;;;;;;;9.70;2.72;;;9.20;99.90;;;;;;4994953;28;20133;-72
2022/10/03 06:43:41;;;;;;;16.13;3.67;;;9.20;99.90;;;;;;4897046;29;20577;-71
2022/10/03 06:46:28;;;;;;;10.10;2.47;;;9.30;99.90;;;;;;4988111;28;20125;-71
2022/10/03 06:49:13;;;;;;;10.48;2.55;;;9.30;99.90;;;;;;4997035;28;20050;-72
2022/10/03 06:52:01;;;;;;;9.65;2.50;;;9.40;99.90;;;;;;4998062;28;20042;-73
2022/10/03 06:55:04;;;;;;;15.82;3.15;;;9.50;99.90;;;;;;4998508;28;20042;-73
2022/10/03 06:57:58;;;;;;;11.93;2.95;;;9.60;99.90;;;;;;4998084;28;20065;-72
2022/10/03 07:00:51;;;;;;;12.25;3.10;;;9.70;99.90;;;;;;4980002;28;20054;-71
2022/10/03 07:03:50;;;;;;;8.68;2.78;;;9.80;99.90;;;;;;4997929;28;20042;-73
2022/10/03 07:06:36;;;;;;;16.02;3.22;;;9.90;99.90;;;;;;4997725;28;20477;-72
2022/10/03 07:09:07;;;;;;;10.20;2.20;;;10.50;99.90;;;;;;4998118;28;20108;-73
2022/10/03 07:12:15;;;;;;;13.57;2.53;;;10.10;99.90;;;;;;4998165;28;20062;-73
2022/10/03 07:15:16;;;;;;;11.70;2.88;;;10.20;99.90;;;;;;4981288;28;20440;-72
2022/10/03 07:18:06;;;;;;;16.13;3.42;;;10.30;99.90;;;;;;4951839;28;20052;-73
2022/10/03 07:20:59;;;;;;;13.48;3.28;;;10.30;99.90;;;;;;4997850;28;20371;-73
2022/10/03 07:23:43;;;;;;;11.40;2.65;;;10.40;99.90;;;;;;4997835;28;20340;-72
2022/10/03 07:26:49;;;;;;;10.63;2.05;;;10.50;99.90;;;;;;4997831;28;20101;-71
2022/10/03 07:29:36;;;;;;;13.05;3.03;;;10.60;99.90;;;;;;4960290;28;20111;-71
2022/10/03 07:32:44;;;;;;;9.50;2.35;;;10.70;99.90;;;;;;4997399;28;20046;-73
2022/10/03 07:38:57;;;;;;;8.63;2.10;;;10.80;99.90;;;;;;4997090;28;20054;-73
2022/10/03 07:41:48;;;;;;;9.18;2.20;;;10.90;99.90;;;;;;4997964;28;20360;-72
2022/10/03 07:44:41;;;;;;;14.70;2.80;;;11.00;99.90;;;;;;4980082;28;20134;-72
2022/10/03 07:47:28;;;;;;;10.80;2.42;;;11.00;99.90;;;;;;4947070;28;20082;-73
2022/10/03 07:50:20;;;;;;;11.77;2.55;;;11.10;99.90;;;;;;4978107;28;20043;-71
2022/10/03 07:53:10;;;;;;;12.18;2.53;;;11.20;99.90;;;;;;4978102;28;20050;-73
2022/10/03 07:55:45;;;;;;;9.63;2.50;;;11.30;99.90;;;;;;4977558;28;20467;-72
2022/10/03 07:58:41;;;;;;;11.38;3.33;;;11.40;99.90;;;;;;4945578;28;20052;-71
2022/10/03 08:01:06;;;;;;;10.07;2.72;;;11.40;99.90;;;;;;4958273;29;20051;-71
2022/10/03 08:04:16;;;;;;;11.85;2.15;;;11.50;99.90;;;;;;4970608;28;20471;-72
2022/10/03 08:06:46;;;;;;;12.82;2.40;;;11.60;99.90;;;;;;4977236;28;20101;-73
2022/10/03 08:09:40;;;;;;;12.27;2.75;;;11.70;99.90;;;;;;4977287;28;20046;-71
2022/10/03 08:12:28;;;;;;;8.18;2.22;;;11.70;99.90;;;;;;4977585;28;20047;-72
2022/10/03 08:15:03;;;;;;;10.63;3.03;;;11.90;99.90;;;;;;4977148;28;20050;-72
2022/10/03 08:18:24;;;;;;;13.55;2.92;;;12.00;99.90;;;;;;4980514;28;20072;-71
2022/10/03 08:20:55;;;;;;;10.77;2.47;;;12.10;99.90;;;;;;4917576;29;20187;-71
2022/10/03 08:23:57;;;;;;;12.02;2.67;;;12.20;99.90;;;;;;4983731;28;20101;-72
2022/10/03 08:26:41;;;;;;;13.20;2.22;;;12.30;99.90;;;;;;4996562;28;20085;-71
2022/10/03 08:29:36;;;;;;;11.85;2.30;;;12.50;99.90;;;;;;4996386;28;20414;-71
2022/10/03 08:32:36;;;;;;;8.75;2.08;;;12.40;99.90;;;;;;4995983;28;20132;-72
2022/10/03 08:35:41;;;;;;;10.73;2.58;;;12.60;99.90;;;;;;4996726;28;20117;-73
2022/10/03 08:38:39;;;;;;;12.23;2.17;;;12.70;99.90;;;;;;4996512;28;20058;-72
2022/10/03 08:41:13;;;;;;;17.88;2.75;;;12.70;99.90;;;;;;4953052;28;20105;-72
2022/10/03 08:44:09;;;;;;;10.88;2.15;;;12.90;99.90;;;;;;4996128;28;20466;-72
2022/10/03 08:46:41;;;;;;;12.35;2.75;;;13.00;99.90;;;;;;4993485;28;20058;-71
2022/10/03 08:49:34;;;;;;;14.05;2.92;;;13.10;99.90;;;;;;4976923;28;20146;-72
2022/10/03 08:52:34;;;;;;;9.48;2.17;;;13.20;99.90;;;;;;4959622;28;20054;-73
2022/10/03 08:55:29;;;;;;;10.32;2.30;;;13.30;99.90;;;;;;4976633;28;20456;-71
2022/10/03 08:58:25;;;;;;;7.75;2.10;;;13.50;99.90;;;;;;4989210;28;20058;-74
2022/10/03 09:01:09;;;;;;;9.88;2.10;;;13.40;99.90;;;;;;4995499;28;20057;-73
2022/10/03 09:04:02;;;;;;;14.70;2.13;;;13.50;99.90;;;;;;4961897;28;20058;-72
2022/10/03 09:06:48;;;;;;;11.27;2.10;;;13.50;99.90;;;;;;4995853;28;20082;-73
2022/10/03 09:09:26;;;;;;;9.07;2.60;;;13.60;99.90;;;;;;4995755;28;20065;-71
2022/10/03 09:12:06;;;;;;;15.27;3.40;;;13.70;99.90;;;;;;4995544;28;20042;-71
2022/10/03 09:15:03;;;;;;;10.00;2.30;;;13.80;99.90;;;;;;4995942;28;20324;-73
2022/10/03 09:18:05;;;;;;;9.77;2.88;;;13.90;99.90;;;;;;4995306;28;20050;-72
2022/10/03 09:20:52;;;;;;;10.50;2.45;;;14.20;99.90;;;;;;4970642;28;20046;-72
2022/10/03 09:23:55;;;;;;;10.75;2.55;;;14.10;99.90;;;;;;4996448;28;20034;-71
2022/10/03 09:27:04;;;;;;;9.27;2.38;;;14.20;99.90;;;;;;4978249;28;20055;-72
2022/10/03 09:29:58;;;;;;;12.68;2.45;;;14.30;99.90;;;;;;4995384;28;20050;-71
2022/10/03 09:32:52;;;;;;;9.52;2.30;;;14.40;99.90;;;;;;4925409;28;20100;-72
2022/10/03 09:35:38;;;;;;;11.98;2.47;;;14.40;99.90;;;;;;4995442;28;20043;-72
2022/10/03 09:38:29;;;;;;;12.82;2.20;;;14.50;99.90;;;;;;4978419;28;20073;-73
2022/10/03 09:41:32;;;;;;;8.50;2.17;;;14.50;99.90;;;;;;4995895;28;20405;-73
2022/10/03 09:44:13;;;;;;;8.88;2.15;;;14.50;99.90;;;;;;4978417;28;20050;-71
2022/10/03 09:47:26;;;;;;;9.45;2.13;;;14.60;99.90;;;;;;4994327;28;20051;-72
2022/10/03 09:50:18;;;;;;;12.90;1.70;;;14.60;99.90;;;;;;4977280;28;20332;-72
2022/10/03 09:53:19;;;;;;;9.95;2.55;;;14.80;99.90;;;;;;4995276;28;20124;-72
2022/10/03 09:56:13;;;;;;;5.40;1.90;;;14.80;99.90;;;;;;4994887;28;20046;-72
2022/10/03 09:59:21;;;;;;;13.05;2.38;;;14.90;99.90;;;;;;4977635;28;20054;-73
2022/10/03 10:02:14;;;;;;;8.05;1.95;;;15.00;99.90;;;;;;4994704;28;20050;-73
2022/10/03 10:05:03;;;;;;;9.50;2.22;;;15.10;99.90;;;;;;4995432;28;20336;-72
2022/10/03 10:07:38;;;;;;;10.15;1.88;;;15.20;99.90;;;;;;4987673;28;20050;-72
2022/10/03 10:10:22;;;;;;;9.00;1.48;;;15.30;99.90;;;;;;4995327;28;20121;-72
2022/10/03 10:13:09;;;;;;;9.65;2.03;;;15.40;99.90;;;;;;4994590;28;20074;-73
2022/10/03 10:15:37;;;;;;;8.57;2.10;;;15.40;99.90;;;;;;4994559;28;20066;-72
2022/10/03 10:18:41;;;;;;;9.48;1.88;;;15.60;99.90;;;;;;4995484;28;20347;-72
2022/10/03 10:21:37;;;;;;;7.72;1.60;;;15.60;99.90;;;;;;4995161;28;20043;-72
2022/10/03 10:24:32;;;;;;;6.35;1.70;;;15.70;99.90;;;;;;4998255;28;20501;-72
2022/10/03 10:27:12;;;;;;;11.30;2.45;;;15.70;99.90;;;;;;4998896;28;20082;-72
2022/10/03 10:30:25;;;;;;;8.95;1.73;;;15.70;99.90;;;;;;4998432;28;20102;-72
2022/10/03 10:33:07;;;;;;;7.15;2.03;;;15.90;99.90;;;;;;4959684;29;20058;-71
2022/10/03 10:35:35;;;;;;;9.73;1.60;;;16.00;99.90;;;;;;4959954;29;20169;-72
2022/10/03 10:38:24;;;;;;;11.05;1.90;;;16.10;99.90;;;;;;4959864;29;20044;-72
2022/10/03 10:41:35;;;;;;;5.05;1.90;;;16.10;99.90;;;;;;4959708;28;20122;-71
2022/10/03 10:44:37;;;;;;;7.50;1.80;;;16.20;99.90;;;;;;4960413;29;20130;-73
2022/10/03 10:47:12;;;;;;;8.05;1.83;;;16.20;99.90;;;;;;4959810;29;20451;-74
2022/10/03 10:49:57;;;;;;;8.40;1.83;;;16.30;99.90;;;;;;4959943;29;20129;-73
2022/10/03 10:52:59;;;;;;;8.40;1.83;;;16.30;99.90;;;;;;4959457;29;20532;-74
2022/10/03 10:55:50;;;;;;;8.20;1.83;;;16.30;99.90;;;;;;4959654;29;20349;-73
2022/10/03 10:59:04;;;;;;;5.70;1.80;;;16.20;99.90;;;;;;4974851;28;20240;-72
2022/10/03 11:01:35;;;;;;;8.40;1.90;;;16.30;99.90;;;;;;4979049;28;20054;-74
2022/10/03 11:04:19;;;;;;;6.93;1.90;;;16.40;99.90;;;;;;4978381;28;20483;-74
2022/10/03 11:07:10;;;;;;;7.38;1.40;;;16.40;99.90;;;;;;4978933;28;20039;-74
2022/10/03 11:09:52;;;;;;;4.93;1.50;;;16.50;99.90;;;;;;4978496;28;20133;-73
2022/10/03 11:12:28;;;;;;;7.45;1.77;;;16.50;99.90;;;;;;4993982;28;20051;-73
2022/10/03 11:15:24;;;;;;;8.93;1.70;;;16.50;99.90;;;;;;4997841;28;20082;-73
2022/10/03 11:18:27;;;;;;;8.43;1.33;;;16.60;99.90;;;;;;4997832;28;20538;-74
2022/10/03 11:21:20;;;;;;;7.83;1.87;;;16.60;99.90;;;;;;4997949;28;20050;-73
2022/10/03 11:24:19;;;;;;;6.03;1.77;;;16.60;99.90;;;;;;4997784;28;20046;-72
2022/10/03 11:27:06;;;;;;;6.05;1.50;;;16.70;99.90;;;;;;5010156;28;20046;-74
2022/10/03 11:29:53;;;;;;;9.32;2.03;;;16.80;99.90;;;;;;4994784;28;20065;-73
2022/10/03 11:32:49;;;;;;;7.20;1.52;;;16.80;99.90;;;;;;4997952;28;20446;-73
2022/10/03 11:35:28;;;;;;;8.75;1.42;;;16.70;99.90;;;;;;4997599;28;20046;-72
2022/10/03 11:38:32;;;;;;;8.07;1.65;;;16.60;99.90;;;;;;4980956;28;20065;-74
2022/10/03 11:40:57;;;;;;;6.43;1.50;;;16.60;99.90;;;;;;5001904;28;20490;-73
2022/10/03 11:43:53;;;;;;;6.88;1.90;;;16.60;99.90;;;;;;5016444;28;20065;-73
2022/10/03 11:46:48;;;;;;;6.75;1.42;;;16.70;99.90;;;;;;5016840;28;20120;-73
2022/10/03 11:49:37;;;;;;;4.93;1.40;;;16.70;99.90;;;;;;5017588;28;20351;-74
2022/10/03 11:52:26;;;;;;;8.63;2.17;;;16.80;99.90;;;;;;5017005;28;20089;-73
2022/10/03 11:55:13;;;;;;;6.38;1.75;;;16.80;99.90;;;;;;5016925;28;20041;-72
2022/10/03 11:57:42;;;;;;;6.18;1.80;;;16.90;99.90;;;;;;5014700;28;20054;-73
2022/10/03 12:00:22;;;;;;;8.48;1.45;;;16.90;99.90;;;;;;5000785;28;20086;-74
2022/10/03 12:03:15;;;;;;;9.13;1.65;;;16.90;99.90;;;;;;4997078;28;20061;-73
2022/10/03 12:09:20;;;;;;;6.18;1.50;;;17.00;99.90;;;;;;4997139;28;20474;-73
2022/10/03 12:11:55;;;;;;;11.18;1.80;;;16.90;99.90;;;;;;5016394;28;20060;-73
2022/10/03 12:14:41;;;;;;;9.02;2.00;;;17.10;99.90;;;;;;5004993;28;20050;-74
2022/10/03 12:17:33;;;;;;;7.82;1.77;;;17.30;99.90;;;;;;4997031;28;20235;-73
2022/10/03 12:20:23;;;;;;;5.75;1.33;;;17.40;99.90;;;;;;4997249;28;20056;-74
2022/10/03 12:23:26;;;;;;;5.75;1.63;;;17.40;99.90;;;;;;4996043;28;20120;-74
2022/10/03 12:25:53;;;;;;;6.18;1.33;;;17.40;99.90;;;;;;4997002;28;20046;-73
2022/10/03 12:28:24;;;;;;;6.75;1.58;;;17.60;99.90;;;;;;4996792;28;20042;-72
2022/10/03 12:31:09;;;;;;;6.10;1.50;;;17.50;99.90;;;;;;4996668;28;20086;-74
2022/10/03 12:33:51;;;;;;;11.02;1.77;;;17.60;99.90;;;;;;4979799;28;20050;-73
2022/10/03 12:36:35;;;;;;;7.97;1.73;;;17.60;99.90;;;;;;4996419;28;20057;-74
2022/10/03 12:39:22;;;;;;;8.10;1.63;;;17.60;99.90;;;;;;4996273;28;20050;-73
2022/10/03 12:42:01;;;;;;;5.25;1.45;;;17.60;99.90;;;;;;4996525;28;20394;-75
2022/10/03 12:44:39;;;;;;;6.15;1.85;;;17.80;99.90;;;;;;4996046;28;20050;-75
2022/10/03 12:47:26;;;;;;;6.22;1.33;;;17.90;99.90;;;;;;4998470;28;20054;-73
2022/10/03 12:50:00;;;;;;;6.10;1.30;;;17.90;99.90;;;;;;5015955;28;20153;-74
2022/10/03 12:52:34;;;;;;;6.18;1.77;;;18.00;99.90;;;;;;5011847;28;20078;-73
2022/10/03 12:55:28;;;;;;;8.88;1.52;;;18.10;99.90;;;;;;4995734;28;20053;-74
2022/10/03 12:58:32;;;;;;;8.07;1.77;;;17.90;99.90;;;;;;4987178;28;20058;-73
2022/10/03 13:01:47;;;;;;;6.55;1.50;;;17.90;99.90;;;;;;4996439;28;20042;-73
2022/10/03 13:04:33;;;;;;;8.88;1.45;;;17.90;99.90;;;;;;4988483;28;20046;-75
2022/10/03 13:07:40;;;;;;;6.88;1.40;;;17.90;99.90;;;;;;4996266;28;20046;-74
2022/10/03 13:10:21;;;;;;;7.78;1.85;;;17.90;99.90;;;;;;4995580;28;20108;-73
2022/10/03 13:12:51;;;;;;;4.53;1.85;;;18.00;99.90;;;;;;4995778;28;20497;-73
2022/10/03 13:15:36;;;;;;;7.60;1.50;;;18.00;99.90;;;;;;4995334;28;20042;-74
2022/10/03 13:18:17;;;;;;;5.85;1.55;;;18.00;99.90;;;;;;4996173;28;20046;-73
2022/10/03 13:20:55;;;;;;;8.02;1.50;;;17.90;99.90;;;;;;4978912;28;20050;-75
2022/10/03 13:23:41;;;;;;;7.10;2.13;;;17.90;99.90;;;;;;4977731;28;20046;-73
2022/10/03 13:26:14;;;;;;;5.15;1.83;;;18.00;99.90;;;;;;4994077;28;20046;-73
2022/10/03 13:29:11;;;;;;;5.20;1.40;;;18.10;99.90;;;;;;4992373;28;20046;-73
2022/10/03 13:31:54;;;;;;;5.10;1.55;;;18.10;99.90;;;;;;4995774;28;20041;-74
2022/10/03 13:34:27;;;;;;;8.27;1.60;;;18.10;99.90;;;;;;4978188;28;20046;-73
2022/10/03 13:36:56;;;;;;;8.77;1.60;;;18.10;99.90;;;;;;4995490;28;20065;-73
2022/10/03 13:39:26;;;;;;;6.35;1.75;;;18.10;99.90;;;;;;4996025;28;20435;-74
2022/10/03 13:42:07;;;;;;;5.30;1.35;;;18.00;99.90;;;;;;4995152;28;20046;-74
2022/10/03 13:44:39;;;;;;;6.13;1.30;;;17.90;99.90;;;;;;4978705;28;20125;-75
2022/10/03 13:47:23;;;;;;;5.38;1.25;;;18.00;99.90;;;;;;4995597;28;20057;-74
2022/10/03 13:50:00;;;;;;;7.28;1.65;;;18.00;99.90;;;;;;4995657;28;20050;-74
2022/10/03 13:52:43;;;;;;;6.43;1.63;;;18.00;99.90;;;;;;4978524;28;20050;-73
2022/10/03 13:55:18;;;;;;;4.45;1.65;;;18.10;99.90;;;;;;4978522;28;20058;-74
2022/10/03 13:58:00;;;;;;;7.88;2.10;;;18.10;99.90;;;;;;4980575;28;20100;-73
2022/10/03 14:00:31;;;;;;;8.57;1.60;;;18.10;99.90;;;;;;4982490;28;20062;-74
2022/10/03 14:03:27;;;;;;;8.48;1.60;;;18.10;99.90;;;;;;4999280;28;20370;-73
2022/10/03 14:06:17;;;;;;;5.38;1.50;;;18.20;99.90;;;;;;4999391;28;20132;-73
2022/10/03 14:08:48;;;;;;;8.13;1.90;;;18.20;99.90;;;;;;4999289;28;20053;-74
2022/10/03 14:11:35;;;;;;;7.57;1.85;;;18.20;99.90;;;;;;4998732;28;20042;-73
2022/10/03 14:14:33;;;;;;;6.05;1.50;;;18.10;99.90;;;;;;4999542;28;20085;-74
2022/10/03 14:17:28;;;;;;;5.93;1.65;;;18.20;99.90;;;;;;4999201;28;20060;-74
2022/10/03 14:20:08;;;;;;;9.27;1.98;;;18.10;99.90;;;;;;4981600;28;20054;-74
2022/10/03 14:22:51;;;;;;;8.10;1.58;;;18.00;99.90;;;;;;4998991;28;20065;-74
2022/10/03 14:25:46;;;;;;;7.20;1.80;;;18.00;99.90;;;;;;4998873;28;20451;-73
2022/10/03 14:28:26;;;;;;;4.88;1.15;;;17.90;99.90;;;;;;4998810;28;20125;-73
2022/10/03 14:30:57;;;;;;;10.13;1.90;;;17.90;99.90;;;;;;4999103;28;20043;-74
2022/10/03 14:33:46;;;;;;;5.95;1.95;;;17.80;99.90;;;;;;4998973;28;20053;-75
2022/10/03 14:36:38;;;;;;;7.85;1.55;;;17.90;99.90;;;;;;4998605;28;20038;-74
2022/10/03 14:39:16;;;;;;;6.68;1.95;;;17.90;99.90;;;;;;4999202;28;20042;-73